createdAt,value
2022-09-20T00:00:35.066Z,2.10
2022-09-20T00:03:01.984Z,2.30
2022-09-20T00:05:29.534Z,1.92
2022-09-20T00:07:56.375Z,1.88
2022-09-20T00:10:24.449Z,2.13
2022-09-20T00:12:52.487Z,2.70
2022-09-20T00:15:19.234Z,2.25
2022-09-20T00:17:45.958Z,2.10
2022-09-20T00:20:13.452Z,1.95
2022-09-20T00:22:40.177Z,1.65
2022-09-20T00:25:08.318Z,2.10
2022-09-20T00:27:37.135Z,2.10
2022-09-20T00:30:04.355Z,2.30
2022-09-20T00:32:31.558Z,2.10
2022-09-20T00:34:58.884Z,2.00
2022-09-20T00:37:26.087Z,2.10
2022-09-20T00:39:52.820Z,2.63
2022-09-20T00:42:26.375Z,1.42
2022-09-20T00:44:59.442Z,2.55
2022-09-20T00:47:36.368Z,2.40
2022-09-20T00:50:16.874Z,2.03
2022-09-20T00:52:46.686Z,2.15
2022-09-20T00:55:14.637Z,2.35
2022-09-20T00:57:44.191Z,3.42
2022-09-20T01:00:14.436Z,3.00
2022-09-20T01:02:44.452Z,2.17
2022-09-20T01:05:14.530Z,3.08
2022-09-20T01:07:43.623Z,2.40
2022-09-20T01:10:10.446Z,2.88
2022-09-20T01:12:39.223Z,2.60
2022-09-20T01:15:09.047Z,2.13
2022-09-20T01:17:42.505Z,3.47
2022-09-20T01:20:15.730Z,1.70
2022-09-20T01:22:52.756Z,2.22
2022-09-20T01:25:30.431Z,2.72
2022-09-20T01:27:58.554Z,2.10
2022-09-20T01:30:31.266Z,2.13
2022-09-20T01:33:07.054Z,2.20
2022-09-20T01:35:35.954Z,2.50
2022-09-20T01:38:19.416Z,2.60
2022-09-20T01:41:01.840Z,2.70
2022-09-20T01:43:34.724Z,2.58
2022-09-20T01:46:11.924Z,2.83
2022-09-20T01:48:40.191Z,2.85
2022-09-20T01:51:31.846Z,2.45
2022-09-20T01:54:33.719Z,2.80
2022-09-20T01:57:36.864Z,2.90
2022-09-20T02:00:12.799Z,3.00
2022-09-20T02:03:11.416Z,2.83
2022-09-20T02:06:07.587Z,3.17
2022-09-20T02:08:58.150Z,2.60
2022-09-20T02:11:36.487Z,2.60
2022-09-20T02:16:48.451Z,2.25
2022-09-20T02:19:54.206Z,2.63
2022-09-20T02:22:37.341Z,2.22
2022-09-20T02:25:14.283Z,2.50
2022-09-20T02:27:50.963Z,2.45
2022-09-20T02:30:29.414Z,2.75
2022-09-20T02:33:23.227Z,2.63
2022-09-20T02:36:02.418Z,2.67
2022-09-20T02:38:41.906Z,2.90
2022-09-20T02:41:46.223Z,2.33
2022-09-20T02:44:24.899Z,2.50
2022-09-20T02:46:58.980Z,2.67
2022-09-20T02:49:33.375Z,2.30
2022-09-20T02:52:08.166Z,2.78
2022-09-20T02:54:44.528Z,3.20
2022-09-20T02:57:16.644Z,3.22
2022-09-20T02:59:52.351Z,3.38
2022-09-20T03:02:26.324Z,3.45
2022-09-20T03:05:09.168Z,4.55
2022-09-20T03:07:52.839Z,4.53
2022-09-20T03:10:25.901Z,4.25
2022-09-20T03:13:10.702Z,4.43
2022-09-20T03:15:52.301Z,4.85
2022-09-20T03:18:29.406Z,4.57
2022-09-20T03:21:08.882Z,4.13
2022-09-20T03:23:47.675Z,3.90
2022-09-20T03:26:24.713Z,4.60
2022-09-20T03:28:59.972Z,3.90
2022-09-20T03:31:44.591Z,3.78
2022-09-20T03:34:24.967Z,3.85
2022-09-20T03:37:11.890Z,3.45
2022-09-20T03:40:03.320Z,3.90
2022-09-20T03:42:30.844Z,3.40
2022-09-20T03:45:22.963Z,3.43
2022-09-20T03:48:23.008Z,3.63
2022-09-20T03:51:04.207Z,2.63
2022-09-20T03:53:49.935Z,2.92
2022-09-20T03:56:32.439Z,3.92
2022-09-20T03:59:21.212Z,2.70
2022-09-20T04:02:19.690Z,3.00
2022-09-20T04:04:51.800Z,2.67
2022-09-20T04:07:26.738Z,2.63
2022-09-20T04:10:16.309Z,2.75
2022-09-20T04:12:56.055Z,2.38
2022-09-20T04:15:31.542Z,2.83
2022-09-20T04:18:05.103Z,3.08
2022-09-20T04:20:39.486Z,3.05
2022-09-20T04:23:17.859Z,3.05
2022-09-20T04:25:49.089Z,3.20
2022-09-20T04:28:22.002Z,2.47
2022-09-20T04:30:51.581Z,4.22
2022-09-20T04:33:21.972Z,3.03
2022-09-20T04:36:00.790Z,3.17
2022-09-20T04:38:28.908Z,3.47
2022-09-20T04:41:18.294Z,2.78
2022-09-20T04:44:20.442Z,2.97
2022-09-20T04:47:25.664Z,2.70
2022-09-20T04:50:29.969Z,2.65
2022-09-20T04:53:22.714Z,3.10
2022-09-20T04:55:53.882Z,2.70
2022-09-20T04:58:37.275Z,2.70
2022-09-20T05:01:52.574Z,2.38
2022-09-20T05:05:04.707Z,3.40
2022-09-20T05:08:11.196Z,2.65
2022-09-20T05:11:11.135Z,2.83
2022-09-20T05:13:57.406Z,2.83
2022-09-20T05:16:37.814Z,3.22
2022-09-20T05:19:25.400Z,2.63
2022-09-20T05:22:24.586Z,2.75
2022-09-20T05:25:24.920Z,3.88
2022-09-20T05:27:56.906Z,3.65
2022-09-20T05:30:34.678Z,3.10
2022-09-20T05:33:13.042Z,3.08
2022-09-20T05:38:16.901Z,3.50
2022-09-20T05:41:03.838Z,4.30
2022-09-20T05:43:33.291Z,3.53
2022-09-20T05:46:16.552Z,3.72
2022-09-20T05:48:55.261Z,4.85
2022-09-20T05:51:36.266Z,4.43
2022-09-20T05:54:46.090Z,4.32
2022-09-20T05:57:26.933Z,3.70
2022-09-20T06:00:03.404Z,3.95
2022-09-20T06:02:41.549Z,3.13
2022-09-20T06:05:18.233Z,3.35
2022-09-20T06:08:04.000Z,4.07
2022-09-20T06:10:45.894Z,3.80
2022-09-20T06:13:33.235Z,4.22
2022-09-20T06:16:01.613Z,3.83
2022-09-20T06:21:10.634Z,2.17
2022-09-20T06:23:38.175Z,2.72
2022-09-20T06:26:20.863Z,4.00
2022-09-20T06:28:58.410Z,3.00
2022-09-20T06:31:25.791Z,2.90
2022-09-20T06:33:58.610Z,4.70
2022-09-20T06:36:29.787Z,3.60
2022-09-20T06:39:07.601Z,3.50
2022-09-20T06:41:36.294Z,3.17
2022-09-20T06:44:04.102Z,3.58
2022-09-20T06:46:32.566Z,3.10
2022-09-20T06:49:01.010Z,3.03
2022-09-20T06:53:57.101Z,3.60
2022-09-20T06:56:26.278Z,3.30
2022-09-20T06:58:53.962Z,2.97
2022-09-20T07:01:29.813Z,3.38
2022-09-20T07:04:00.619Z,2.40
2022-09-20T07:06:28.713Z,2.72
2022-09-20T07:08:55.569Z,2.80
2022-09-20T07:11:23.197Z,2.50
2022-09-20T07:13:51.355Z,3.70
2022-09-20T07:16:18.553Z,2.17
2022-09-20T07:18:46.716Z,2.47
2022-09-20T07:21:15.704Z,2.00
2022-09-20T07:26:18.014Z,2.13
2022-09-20T07:28:44.842Z,1.60
2022-09-20T07:31:12.417Z,2.13
2022-09-20T07:33:39.229Z,2.70
2022-09-20T07:36:06.451Z,2.10
2022-09-20T07:38:33.787Z,2.45
2022-09-20T07:41:02.396Z,2.10
2022-09-20T07:43:30.402Z,1.80
2022-09-20T07:45:58.798Z,2.13
2022-09-20T07:48:27.686Z,2.00
2022-09-20T07:50:56.200Z,1.80
2022-09-20T07:53:24.190Z,2.30
2022-09-20T07:56:02.694Z,2.58
2022-09-20T07:58:31.763Z,1.88
2022-09-20T08:01:01.455Z,1.52
2022-09-20T08:03:30.371Z,1.63
2022-09-20T08:05:59.898Z,1.73
2022-09-20T08:10:53.246Z,2.50
2022-09-20T08:16:10.723Z,2.28
2022-09-20T08:18:38.116Z,1.98
2022-09-20T08:21:06.263Z,1.40
2022-09-20T08:23:34.536Z,1.30
2022-09-20T08:28:30.520Z,1.42
2022-09-20T08:31:01.733Z,1.23
2022-09-20T08:33:29.150Z,1.70
2022-09-20T08:35:57.844Z,1.27
2022-09-20T08:41:15.334Z,1.10
2022-09-20T08:43:50.000Z,1.50
2022-09-20T08:46:23.328Z,0.93
2022-09-20T08:48:50.566Z,0.88
2022-09-20T08:51:22.725Z,0.80
2022-09-20T08:53:52.789Z,1.10
2022-09-20T08:56:21.018Z,0.85
2022-09-20T08:58:49.482Z,1.10
2022-09-20T09:01:21.540Z,0.95
2022-09-20T09:03:51.396Z,0.70
2022-09-20T09:06:21.921Z,1.40
2022-09-20T09:08:49.668Z,0.90
2022-09-20T09:11:18.699Z,1.70
2022-09-20T09:13:53.297Z,0.80
2022-09-20T09:16:27.330Z,0.70
2022-09-20T09:18:57.580Z,1.55
2022-09-20T09:21:29.293Z,1.17
2022-09-20T09:24:04.035Z,0.90
2022-09-20T09:26:36.634Z,1.27
2022-09-20T09:29:16.450Z,1.15
2022-09-20T09:31:44.780Z,1.20
2022-09-20T09:34:26.596Z,1.58
2022-09-20T09:36:54.734Z,1.33
2022-09-20T09:39:26.310Z,1.17
2022-09-20T09:41:54.359Z,1.27
2022-09-20T09:44:24.529Z,1.00
2022-09-20T09:46:51.950Z,0.98
2022-09-20T09:49:21.484Z,1.50
2022-09-20T09:54:31.578Z,1.00
2022-09-20T09:57:10.049Z,1.00
2022-09-20T10:00:02.358Z,0.80
2022-09-20T10:02:51.166Z,1.40
2022-09-20T10:05:24.605Z,0.98
2022-09-20T10:07:55.756Z,1.35
2022-09-20T10:10:30.653Z,0.70
2022-09-20T10:13:09.123Z,1.70
2022-09-20T10:15:45.819Z,0.63
2022-09-20T10:18:29.751Z,0.60
2022-09-20T10:21:08.217Z,1.08
2022-09-20T10:24:03.232Z,0.67
2022-09-20T10:26:48.078Z,0.60
2022-09-20T10:29:25.226Z,0.70
2022-09-20T10:32:06.899Z,0.70
2022-09-20T10:35:03.555Z,1.05
2022-09-20T10:37:49.165Z,0.80
2022-09-20T10:40:24.861Z,0.60
2022-09-20T10:43:04.790Z,0.60
2022-09-20T10:46:08.778Z,0.80
2022-09-20T10:48:33.232Z,1.17
2022-09-20T10:51:06.671Z,0.60
2022-09-20T10:53:41.696Z,0.60
2022-09-20T10:56:23.474Z,0.70
2022-09-20T10:59:09.764Z,0.95
2022-09-20T11:01:45.459Z,0.60
2022-09-20T11:04:32.144Z,0.45
2022-09-20T11:07:11.322Z,0.90
2022-09-20T11:09:50.947Z,0.70
2022-09-20T11:12:34.840Z,0.65
2022-09-20T11:15:05.615Z,0.82
2022-09-20T11:17:37.468Z,1.40
2022-09-20T11:20:15.361Z,0.98
2022-09-20T11:22:46.472Z,1.10
2022-09-20T11:25:21.534Z,0.88
2022-09-20T11:27:54.896Z,1.00
2022-09-20T11:30:23.335Z,0.65
2022-09-20T11:32:53.859Z,0.68
2022-09-20T11:35:29.512Z,1.10
2022-09-20T11:38:08.406Z,1.20
2022-09-20T11:40:38.488Z,0.60
2022-09-20T11:43:09.384Z,0.63
2022-09-20T11:45:40.063Z,0.47
2022-09-20T11:48:14.200Z,0.90
2022-09-20T11:51:20.868Z,0.43
2022-09-20T11:54:06.893Z,0.88
2022-09-20T11:56:33.832Z,0.60
2022-09-20T11:59:03.661Z,0.68
2022-09-20T12:01:33.378Z,0.70
2022-09-20T12:04:30.814Z,1.05
2022-09-20T12:07:03.490Z,1.05
2022-09-20T12:09:39.006Z,0.80
2022-09-20T12:12:29.042Z,0.60
2022-09-20T12:14:58.375Z,0.70
2022-09-20T12:18:06.753Z,0.70
2022-09-20T12:21:16.139Z,0.60
2022-09-20T12:24:02.190Z,1.40
2022-09-20T12:26:42.290Z,1.27
2022-09-20T12:29:51.680Z,0.77
2022-09-20T12:32:54.221Z,0.85
2022-09-20T12:35:57.231Z,0.90
2022-09-20T12:38:55.049Z,0.70
2022-09-20T12:41:28.349Z,1.33
2022-09-20T12:44:01.492Z,1.00
2022-09-20T12:46:38.161Z,1.42
2022-09-20T12:49:40.604Z,0.52
2022-09-20T12:52:26.547Z,0.60
2022-09-20T12:55:00.958Z,0.60
2022-09-20T12:57:32.629Z,0.60
2022-09-20T13:00:05.994Z,0.90
2022-09-20T13:02:56.371Z,1.25
2022-09-20T13:05:33.907Z,0.70
2022-09-20T13:08:04.245Z,0.82
2022-09-20T13:10:39.123Z,0.70
2022-09-20T13:13:15.611Z,0.60
2022-09-20T13:15:52.244Z,0.65
2022-09-20T13:18:19.880Z,0.80
2022-09-20T13:20:47.977Z,0.60
2022-09-20T13:23:20.504Z,0.70
2022-09-20T13:25:49.955Z,0.98
2022-09-20T13:28:34.051Z,0.90
2022-09-20T13:31:26.673Z,0.75
2022-09-20T13:33:53.615Z,0.60
2022-09-20T13:36:27.075Z,0.60
2022-09-20T13:38:55.987Z,0.80
2022-09-20T13:41:27.360Z,0.65
2022-09-20T13:43:54.115Z,0.90
2022-09-20T13:46:28.383Z,0.60
2022-09-20T13:49:09.576Z,0.65
2022-09-20T13:51:36.304Z,0.65
2022-09-20T13:54:25.718Z,1.10
2022-09-20T13:56:53.880Z,0.60
2022-09-20T14:01:54.060Z,1.27
2022-09-20T14:04:24.295Z,0.52
2022-09-20T14:06:53.507Z,0.60
2022-09-20T14:09:27.986Z,0.80
2022-09-20T14:11:56.253Z,0.70
2022-09-20T14:14:25.008Z,0.73
2022-09-20T14:16:54.975Z,1.02
2022-09-20T14:19:28.805Z,0.70
2022-09-20T14:21:55.846Z,0.52
2022-09-20T14:24:27.055Z,0.80
2022-09-20T14:27:03.280Z,0.70
2022-09-20T14:29:38.691Z,1.45
2022-09-20T14:32:11.893Z,0.60
2022-09-20T14:34:40.249Z,0.73
2022-09-20T14:37:13.464Z,1.17
2022-09-20T14:39:48.075Z,0.60
2022-09-20T14:42:29.353Z,0.63
2022-09-20T14:44:56.846Z,0.73
2022-09-20T14:47:36.266Z,0.80
2022-09-20T14:50:04.625Z,0.77
2022-09-20T14:52:37.083Z,0.63
2022-09-20T14:55:19.212Z,0.70
2022-09-20T14:57:47.231Z,1.13
2022-09-20T15:00:16.305Z,1.17
2022-09-20T15:02:46.270Z,0.60
2022-09-20T15:05:20.385Z,1.15
2022-09-20T15:07:48.040Z,0.70
2022-09-20T15:10:15.233Z,0.70
2022-09-20T15:12:42.140Z,0.85
2022-09-20T15:15:13.754Z,0.82
2022-09-20T15:17:40.943Z,1.20
2022-09-20T15:20:13.453Z,0.63
2022-09-20T15:22:41.063Z,0.80
2022-09-20T15:25:12.400Z,1.05
2022-09-20T15:27:39.148Z,0.63
2022-09-20T15:30:09.935Z,0.80
2022-09-20T15:32:36.668Z,0.90
2022-09-20T15:35:03.896Z,0.70
2022-09-20T15:37:32.642Z,0.70
2022-09-20T15:39:59.692Z,0.80
2022-09-20T15:42:26.543Z,0.82
2022-09-20T15:44:53.925Z,1.85
2022-09-20T15:47:20.724Z,0.80
2022-09-20T15:49:49.505Z,0.90
2022-09-20T15:52:20.010Z,1.35
2022-09-20T15:54:49.070Z,0.95
2022-09-20T15:57:16.928Z,1.23
2022-09-20T15:59:43.700Z,0.90
2022-09-20T16:02:10.464Z,1.10
2022-09-20T16:04:37.923Z,1.08
2022-09-20T16:07:07.609Z,0.70
2022-09-20T16:09:34.375Z,1.10
2022-09-20T16:12:03.653Z,0.70
2022-09-20T16:14:31.187Z,0.70
2022-09-20T16:16:58.039Z,1.13
2022-09-20T16:19:25.786Z,0.80
2022-09-20T16:21:57.689Z,1.10
2022-09-20T16:24:27.188Z,0.90
2022-09-20T16:26:54.318Z,0.70
2022-09-20T16:29:22.673Z,0.95
2022-09-20T16:31:50.596Z,1.10
2022-09-20T16:34:19.591Z,1.10
2022-09-20T16:39:15.327Z,0.80
2022-09-20T16:41:42.897Z,0.88
2022-09-20T16:44:09.796Z,0.60
2022-09-20T16:46:38.836Z,0.90
2022-09-20T16:49:07.508Z,1.05
2022-09-20T16:51:36.134Z,0.93
2022-09-20T16:54:04.569Z,1.48
2022-09-20T16:56:33.183Z,0.80
2022-09-20T16:59:00.117Z,1.00
2022-09-20T17:01:28.339Z,0.90
2022-09-20T17:03:59.050Z,0.45
2022-09-20T17:06:25.967Z,0.60
2022-09-20T17:08:59.006Z,0.80
2022-09-20T17:11:28.799Z,1.63
2022-09-20T17:13:56.829Z,0.90
2022-09-20T17:16:25.846Z,0.85
2022-09-20T17:18:53.567Z,1.42
2022-09-20T17:21:22.930Z,0.80
2022-09-20T17:23:51.979Z,1.48
2022-09-20T17:26:20.555Z,1.65
2022-09-20T17:28:49.295Z,0.80
2022-09-20T17:31:18.061Z,0.88
2022-09-20T17:33:44.856Z,0.80
2022-09-20T17:36:14.265Z,0.60
2022-09-20T17:38:42.703Z,0.70
2022-09-20T17:41:12.691Z,0.80
2022-09-20T17:43:40.894Z,0.70
2022-09-20T17:46:10.669Z,1.10
2022-09-20T17:48:38.887Z,0.63
2022-09-20T17:51:11.718Z,0.90
2022-09-20T17:53:39.341Z,0.80
2022-09-20T17:56:08.113Z,0.90
2022-09-20T17:58:35.474Z,0.90
